Time;durP1;ratioP1;P1;durP2;ratioP2;P2;SDS_P1;SDS_P2;PMS_P1;PMS_P2;Temp;Humidity;BMP_temperature;BMP_pressure;BME280_temperature;BME280_humidity;BME280_pressure;Samples;Min_cycle;Max_cycle;Signal;HPM_P1;HPM_P2
2021/10/18 00:00:34;;;;;;;9.02;6.78;;;;;;;10.83;83.89;99128.00;5010092;28;20033;-58
2021/10/18 00:02:59;;;;;;;9.88;7.38;;;;;;;10.77;84.24;99127.56;5011475;28;20026;-59
2021/10/18 00:05:24;;;;;;;9.13;6.50;;;;;;;10.76;84.42;99141.50;5016225;28;20332;-59
2021/10/18 00:07:50;;;;;;;9.90;7.10;;;;;;;10.75;84.55;99142.47;5023327;28;20025;-59
2021/10/18 00:10:16;;;;;;;9.60;6.95;;;;;;;10.76;84.40;99135.50;5021799;28;20096;-59
2021/10/18 00:12:42;;;;;;;9.40;6.45;;;;;;;10.71;84.13;99127.25;5025973;28;20400;-59
2021/10/18 00:15:09;;;;;;;9.15;6.30;;;;;;;10.76;84.36;99146.72;5020343;28;20033;-59
2021/10/18 00:17:34;;;;;;;10.55;7.03;;;;;;;10.68;84.57;99133.56;4949349;28;20025;-59
2021/10/18 00:20:01;;;;;;;10.57;6.78;;;;;;;10.76;84.75;99151.09;5019608;28;20021;-59
2021/10/18 00:22:26;;;;;;;9.18;6.80;;;;;;;10.75;84.61;99139.03;5013076;28;20026;-59
2021/10/18 00:24:52;;;;;;;9.30;6.53;;;;;;;10.75;84.49;99145.09;5023242;28;20558;-59
2021/10/18 00:27:17;;;;;;;11.02;6.78;;;;;;;10.74;84.39;99134.81;5024279;28;20100;-59
2021/10/18 00:29:42;;;;;;;9.60;6.88;;;;;;;10.75;84.40;99141.63;5021931;28;20033;-59
2021/10/18 00:32:08;;;;;;;10.18;6.85;;;;;;;10.81;84.17;99148.13;5024448;28;20048;-59
2021/10/18 00:34:34;;;;;;;9.88;6.60;;;;;;;10.53;84.12;99106.25;4987530;28;20423;-59
2021/10/18 00:36:59;;;;;;;9.80;6.78;;;;;;;10.71;84.53;99137.66;5020311;28;20112;-59
2021/10/18 00:39:24;;;;;;;9.93;6.88;;;;;;;9.98;84.39;99028.63;5026408;28;20762;-60
2021/10/18 00:41:50;;;;;;;9.68;6.90;;;;;;;10.48;84.54;99122.28;5036775;28;20029;-57
2021/10/18 00:44:15;;;;;;;10.85;6.85;;;;;;;10.69;84.31;99148.19;5029594;28;20152;-58
2021/10/18 00:46:43;;;;;;;10.18;7.47;;;;;;;10.69;84.56;99147.38;5025629;28;20029;-59
2021/10/18 00:49:09;;;;;;;9.45;6.30;;;;;;;10.69;84.24;99139.56;4961557;28;20616;-59
2021/10/18 00:51:34;;;;;;;10.10;6.68;;;;;;;10.60;84.17;99140.38;5012361;28;20029;-59
2021/10/18 00:54:00;;;;;;;9.25;6.28;;;;;;;10.60;84.13;99136.00;5027441;28;20033;-59
2021/10/18 00:56:26;;;;;;;10.68;6.40;;;;;;;10.58;84.53;99138.72;5024047;28;20035;-59
2021/10/18 00:58:52;;;;;;;10.05;6.38;;;;;;;10.57;84.21;99133.66;5027224;28;20041;-59
2021/10/18 01:01:17;;;;;;;9.50;6.07;;;;;;;10.64;84.04;99136.53;5035126;28;20032;-58
2021/10/18 01:03:43;;;;;;;10.30;6.20;;;;;;;10.64;83.81;99144.34;5020380;28;20034;-59
2021/10/18 01:06:09;;;;;;;9.75;6.18;;;;;;;10.36;84.12;99100.75;5010941;28;20041;-59
2021/10/18 01:08:34;;;;;;;9.25;6.28;;;;;;;10.59;84.53;99147.34;5007711;28;20055;-59
2021/10/18 01:11:00;;;;;;;9.73;6.50;;;;;;;10.62;84.77;99139.28;5026009;28;20032;-59
2021/10/18 01:13:26;;;;;;;10.02;6.22;;;;;;;10.50;84.37;99127.34;5020272;28;20029;-59
2021/10/18 01:15:51;;;;;;;9.85;7.38;;;;;;;10.58;84.39;99136.13;5025774;28;20028;-58
2021/10/18 01:18:17;;;;;;;8.93;6.07;;;;;;;10.20;84.55;99080.41;5028603;28;20049;-59
2021/10/18 01:20:42;;;;;;;10.45;6.07;;;;;;;10.61;84.12;99132.44;4963758;28;20036;-59
2021/10/18 01:23:09;;;;;;;9.70;7.03;;;;;;;10.54;84.75;99128.72;5021548;28;20047;-59
2021/10/18 01:25:36;;;;;;;9.10;6.53;;;;;;;10.48;84.83;99122.28;5019221;28;20033;-59
2021/10/18 01:28:02;;;;;;;9.55;6.00;;;;;;;10.58;84.31;99122.31;5023501;28;20021;-59
2021/10/18 01:30:27;;;;;;;9.63;6.35;;;;;;;10.55;84.51;99115.59;5019178;28;20111;-59
2021/10/18 01:32:53;;;;;;;8.90;6.10;;;;;;;10.53;84.24;99120.09;5028936;28;20601;-59
2021/10/18 01:35:19;;;;;;;9.80;6.10;;;;;;;10.56;84.34;99122.44;5016691;28;20440;-59
2021/10/18 01:37:44;;;;;;;8.38;6.25;;;;;;;10.47;84.45;99115.41;4951686;28;20042;-59
2021/10/18 01:40:13;;;;;;;11.18;6.28;;;;;;;10.46;84.32;99113.78;5029997;28;20647;-59
2021/10/18 01:42:39;;;;;;;8.48;5.65;;;;;;;10.10;85.06;99058.75;5012685;28;20029;-59
2021/10/18 01:45:10;;;;;;;9.75;6.40;;;;;;;10.41;84.95;99107.34;5018303;28;20028;-59
2021/10/18 01:47:36;;;;;;;8.77;5.90;;;;;;;10.38;85.07;99103.22;5019763;28;20746;-58
2021/10/18 01:50:13;;;;;;;9.73;6.28;;;;;;;10.48;84.98;99111.06;5030641;28;20013;-59
2021/10/18 01:52:39;;;;;;;9.00;6.07;;;;;;;10.43;85.19;99114.03;4957427;28;20037;-59
2021/10/18 01:55:05;;;;;;;9.07;6.47;;;;;;;10.42;84.96;99117.59;5023910;28;20373;-59
2021/10/18 01:57:31;;;;;;;9.60;6.10;;;;;;;10.43;84.98;99118.44;5019025;28;20044;-59
2021/10/18 01:59:57;;;;;;;9.25;5.82;;;;;;;10.41;85.19;99117.75;5025996;28;20124;-59
2021/10/18 02:02:23;;;;;;;9.95;6.75;;;;;;;10.14;85.20;99070.53;5026674;28;20025;-59
2021/10/18 02:04:48;;;;;;;8.95;5.95;;;;;;;10.11;85.83;99072.56;5024717;28;20125;-59
2021/10/18 02:07:14;;;;;;;10.02;6.30;;;;;;;10.32;85.75;99111.53;5018650;28;20064;-58
2021/10/18 02:09:39;;;;;;;8.82;5.65;;;;;;;10.26;85.90;99112.00;4948854;28;20113;-59
2021/10/18 02:12:05;;;;;;;9.60;6.13;;;;;;;9.89;85.48;99039.78;5033299;28;20060;-59
2021/10/18 02:14:30;;;;;;;9.40;6.30;;;;;;;9.97;85.88;99063.38;5020395;28;20051;-59
2021/10/18 02:16:55;;;;;;;9.05;6.22;;;;;;;10.20;86.64;99096.00;5011223;28;20175;-59
2021/10/18 02:19:21;;;;;;;8.98;6.28;;;;;;;10.26;86.49;99101.63;5012980;28;20037;-59
2021/10/18 02:21:46;;;;;;;9.60;6.00;;;;;;;10.28;86.36;99112.72;5028633;28;20040;-60
2021/10/18 02:24:12;;;;;;;10.00;6.05;;;;;;;10.22;86.38;99102.84;5002520;28;20033;-59
2021/10/18 02:26:37;;;;;;;8.20;5.82;;;;;;;10.15;86.30;99097.34;5019183;28;20033;-59
2021/10/18 02:29:02;;;;;;;9.55;6.25;;;;;;;10.26;86.12;99099.88;5012401;28;20025;-59
2021/10/18 02:31:28;;;;;;;9.63;6.47;;;;;;;10.36;85.91;99102.53;5008019;28;20030;-59
2021/10/18 02:33:53;;;;;;;9.57;6.45;;;;;;;10.22;86.24;99088.06;5024073;28;20116;-59
2021/10/18 02:36:19;;;;;;;9.57;6.03;;;;;;;10.29;86.42;99096.16;5023027;28;20116;-59
2021/10/18 02:38:44;;;;;;;9.25;5.95;;;;;;;9.99;86.48;99048.47;5015080;28;20089;-59
2021/10/18 02:41:09;;;;;;;8.70;5.80;;;;;;;10.19;86.42;99088.34;4925690;28;20075;-59
2021/10/18 02:43:35;;;;;;;8.80;5.95;;;;;;;10.22;86.45;99089.84;5016414;28;20453;-59
2021/10/18 02:46:00;;;;;;;8.77;6.30;;;;;;;10.29;85.88;99094.38;5016122;28;20121;-59
2021/10/18 02:48:25;;;;;;;8.93;5.90;;;;;;;9.96;86.01;99052.13;5025519;28;20484;-59
2021/10/18 02:50:52;;;;;;;9.68;6.15;;;;;;;10.22;86.26;99092.44;5027269;28;20065;-59
2021/10/18 02:53:18;;;;;;;8.52;5.95;;;;;;;10.18;86.48;99099.69;5007265;28;20112;-59
2021/10/18 02:55:44;;;;;;;8.65;5.70;;;;;;;10.22;85.75;99092.44;5008782;28;20034;-59
2021/10/18 02:58:09;;;;;;;9.65;5.75;;;;;;;10.27;85.41;99098.06;5026386;28;20071;-58
2021/10/18 03:00:35;;;;;;;9.00;5.93;;;;;;;10.27;85.32;99103.28;5016101;28;20446;-59
2021/10/18 03:03:00;;;;;;;8.23;5.70;;;;;;;10.23;85.30;99102.72;5025268;28;20038;-58
2021/10/18 03:05:25;;;;;;;8.40;5.82;;;;;;;10.23;84.66;99101.91;5024561;28;20404;-59
2021/10/18 03:07:54;;;;;;;9.68;5.75;;;;;;;10.28;84.85;99103.16;5022329;28;20025;-60
2021/10/18 03:10:19;;;;;;;9.20;5.47;;;;;;;10.24;84.84;99099.19;5017804;28;20382;-59
2021/10/18 03:12:45;;;;;;;8.65;5.90;;;;;;;10.35;84.30;99106.09;4936375;28;20496;-59
2021/10/18 03:15:11;;;;;;;8.82;5.25;;;;;;;10.19;84.69;99102.16;5020360;28;20083;-59
2021/10/18 03:17:37;;;;;;;9.60;5.55;;;;;;;9.97;84.55;99063.38;5022126;28;20041;-58
2021/10/18 03:20:04;;;;;;;7.80;5.35;;;;;;;10.18;85.03;99095.31;5025544;28;20024;-59
2021/10/18 03:22:29;;;;;;;8.88;5.45;;;;;;;10.13;84.53;99099.25;5030123;28;20579;-59
2021/10/18 03:24:55;;;;;;;10.38;5.70;;;;;;;10.19;85.02;99109.13;5030525;28;20056;-59
2021/10/18 03:27:21;;;;;;;8.15;5.22;;;;;;;10.24;85.12;99113.94;4998673;28;20579;-59
2021/10/18 03:29:47;;;;;;;7.97;5.70;;;;;;;10.15;84.97;99108.56;5018094;28;20030;-59
2021/10/18 03:32:12;;;;;;;8.00;5.35;;;;;;;10.12;84.83;99100.22;5016912;28;20039;-59
2021/10/18 03:34:38;;;;;;;8.25;5.40;;;;;;;10.03;85.25;99091.41;5023751;28;22064;-59
2021/10/18 03:37:03;;;;;;;11.63;5.93;;;;;;;10.03;85.33;99093.19;5020244;28;20067;-59
2021/10/18 03:39:29;;;;;;;9.73;5.40;;;;;;;10.08;84.97;99112.63;5019128;28;20030;-59
2021/10/18 03:41:54;;;;;;;8.20;5.47;;;;;;;10.10;85.36;99113.31;5021439;28;20102;-59
2021/10/18 03:44:19;;;;;;;10.30;5.68;;;;;;;9.94;85.25;99103.38;4957007;28;20025;-59
2021/10/18 03:46:45;;;;;;;8.57;5.15;;;;;;;10.01;84.71;99111.50;5019770;28;20030;-59
2021/10/18 03:49:10;;;;;;;8.60;5.70;;;;;;;10.12;84.65;99111.41;5015624;28;20032;-58
2021/10/18 03:51:35;;;;;;;8.82;5.85;;;;;;;10.00;84.61;99089.06;5021085;28;20481;-59
2021/10/18 03:54:01;;;;;;;8.40;5.32;;;;;;;10.20;84.51;99111.59;5028898;28;20028;-59
2021/10/18 03:56:26;;;;;;;11.20;5.85;;;;;;;10.13;85.29;99107.03;5017805;28;20083;-59
2021/10/18 03:58:52;;;;;;;8.05;5.28;;;;;;;9.91;84.98;99072.50;5011202;28;20033;-59
2021/10/18 04:01:17;;;;;;;8.82;5.28;;;;;;;10.15;85.16;99112.94;5017600;28;20055;-59
2021/10/18 04:03:43;;;;;;;8.98;5.47;;;;;;;10.12;85.65;99119.22;5009996;28;20040;-58
2021/10/18 04:06:08;;;;;;;10.13;5.78;;;;;;;10.10;85.86;99115.09;5028600;28;20026;-59
2021/10/18 04:08:36;;;;;;;8.65;5.70;;;;;;;10.08;86.10;99115.22;5022176;28;20112;-59
2021/10/18 04:11:02;;;;;;;9.60;5.32;;;;;;;10.01;86.47;99112.31;5015405;28;20030;-59
2021/10/18 04:13:27;;;;;;;7.97;5.38;;;;;;;9.81;87.08;99089.78;5027219;28;20060;-57
2021/10/18 04:15:53;;;;;;;9.63;5.93;;;;;;;10.01;86.85;99112.31;5001488;28;21063;-59
2021/10/18 04:18:19;;;;;;;8.63;5.60;;;;;;;10.06;86.99;99119.75;5017485;28;20576;-59
2021/10/18 04:20:45;;;;;;;8.43;5.13;;;;;;;10.06;86.71;99124.94;5025033;28;20033;-59
2021/10/18 04:23:10;;;;;;;8.90;5.75;;;;;;;10.03;86.51;99124.38;5018814;28;20567;-58
2021/10/18 04:25:35;;;;;;;8.07;5.63;;;;;;;9.76;86.45;99076.34;5026939;28;20112;-59
2021/10/18 04:28:01;;;;;;;10.38;5.57;;;;;;;9.98;86.62;99132.53;5020348;28;20029;-59
2021/10/18 04:30:26;;;;;;;7.93;5.45;;;;;;;10.06;85.66;99118.88;5001975;28;20045;-59
2021/10/18 04:32:52;;;;;;;8.57;5.75;;;;;;;10.07;85.91;99130.94;5033839;28;20037;-59
2021/10/18 04:35:17;;;;;;;9.27;5.43;;;;;;;10.01;86.23;99125.31;5032294;28;20068;-59
2021/10/18 04:37:42;;;;;;;8.43;5.35;;;;;;;10.00;86.14;99128.88;5021123;28;20036;-60
2021/10/18 04:40:08;;;;;;;7.50;5.30;;;;;;;9.78;86.13;99098.69;5026493;28;20029;-60
2021/10/18 04:42:34;;;;;;;8.63;5.47;;;;;;;9.87;86.13;99104.03;5024697;28;20904;-60
2021/10/18 04:44:59;;;;;;;9.27;5.80;;;;;;;10.12;86.05;99152.19;5026983;28;20933;-60
2021/10/18 04:47:25;;;;;;;9.40;5.50;;;;;;;10.06;86.13;99150.06;5015668;28;20056;-60
2021/10/18 04:49:50;;;;;;;8.35;5.38;;;;;;;10.12;85.79;99158.19;5027687;28;20045;-60
2021/10/18 04:52:16;;;;;;;11.18;5.65;;;;;;;9.92;85.60;99135.66;5023837;28;20030;-59
2021/10/18 04:54:41;;;;;;;8.43;5.40;;;;;;;10.06;86.32;99166.50;5032405;28;20100;-60
2021/10/18 04:57:06;;;;;;;9.68;5.35;;;;;;;9.98;86.65;99168.91;5036699;28;20365;-60
2021/10/18 04:59:32;;;;;;;10.43;5.65;;;;;;;9.76;86.61;99120.50;5027883;28;20048;-60
2021/10/18 05:01:57;;;;;;;8.63;5.10;;;;;;;9.95;86.92;99159.59;5022465;28;20024;-58
2021/10/18 05:04:23;;;;;;;10.18;5.18;;;;;;;9.97;86.71;99160.28;5022799;28;20559;-60
2021/10/18 05:06:48;;;;;;;7.97;5.50;;;;;;;10.05;86.43;99161.44;5026950;28;20048;-58
2021/10/18 05:09:13;;;;;;;8.07;4.90;;;;;;;9.99;86.61;99162.78;5025188;28;20452;-59
2021/10/18 05:11:40;;;;;;;9.85;5.15;;;;;;;9.96;87.01;99156.03;5022447;28;20040;-60
2021/10/18 05:14:06;;;;;;;8.45;5.22;;;;;;;10.10;86.65;99156.69;5015763;28;20030;-59
2021/10/18 05:16:32;;;;;;;8.10;5.03;;;;;;;10.15;86.04;99151.94;5016091;28;20083;-60
2021/10/18 05:18:57;;;;;;;8.63;5.30;;;;;;;10.03;85.95;99152.94;5021876;28;20487;-59
2021/10/18 05:21:23;;;;;;;8.55;5.22;;;;;;;10.01;86.87;99159.09;5014956;28;20038;-59
2021/10/18 05:23:48;;;;;;;7.80;5.00;;;;;;;9.74;86.67;99112.03;5021429;28;20099;-59
2021/10/18 05:26:14;;;;;;;7.90;4.75;;;;;;;9.79;86.64;99133.25;5021817;28;20041;-59
2021/10/18 05:28:39;;;;;;;7.78;4.80;;;;;;;9.96;86.84;99168.22;5017312;28;20026;-60
2021/10/18 05:31:05;;;;;;;9.65;5.53;;;;;;;9.86;87.83;99170.75;5012420;28;20026;-59
2021/10/18 05:33:30;;;;;;;8.25;5.30;;;;;;;9.93;87.44;99169.31;5017669;28;20369;-59
2021/10/18 05:35:55;;;;;;;7.75;4.97;;;;;;;9.95;87.27;99175.19;5019165;28;20683;-60
2021/10/18 05:38:22;;;;;;;8.15;5.53;;;;;;;9.85;87.60;99179.47;5017362;28;20029;-59
2021/10/18 05:40:48;;;;;;;8.50;5.60;;;;;;;9.76;87.46;99173.25;5010488;28;20029;-60
2021/10/18 05:43:14;;;;;;;10.52;6.50;;;;;;;9.74;87.33;99156.16;5017228;28;20029;-59
2021/10/18 05:45:40;;;;;;;8.98;5.82;;;;;;;9.83;87.41;99189.19;5016334;28;20038;-59
2021/10/18 05:48:05;;;;;;;9.52;6.15;;;;;;;9.81;87.50;99199.69;4998513;28;20077;-59
2021/10/18 05:50:39;;;;;;;8.57;5.57;;;;;;;9.74;87.60;99185.56;5009591;28;20385;-59
2021/10/18 05:53:05;;;;;;;8.55;6.28;;;;;;;9.76;87.92;99186.25;5009480;28;20759;-59
2021/10/18 05:55:32;;;;;;;8.68;5.90;;;;;;;9.78;88.07;99188.72;5001026;28;20049;-59
2021/10/18 05:58:03;;;;;;;12.48;6.05;;;;;;;9.90;87.77;99194.72;5009888;28;20103;-59
2021/10/18 06:00:33;;;;;;;8.75;5.80;;;;;;;9.85;87.49;99186.47;5013917;28;20038;-59
2021/10/18 06:02:58;;;;;;;22.15;14.57;;;;;;;9.74;88.47;99188.16;5015111;28;20048;-59
2021/10/18 06:05:24;;;;;;;18.70;13.73;;;;;;;9.86;87.45;99182.94;5011842;28;20412;-60
2021/10/18 06:07:50;;;;;;;15.32;8.57;;;;;;;9.81;87.14;99188.47;5008411;28;20026;-59
2021/10/18 06:10:16;;;;;;;14.40;7.88;;;;;;;9.78;87.18;99186.97;5015376;28;20674;-59
2021/10/18 06:12:42;;;;;;;9.35;5.63;;;;;;;9.76;86.98;99194.03;5014076;28;20192;-59
2021/10/18 06:15:09;;;;;;;10.77;4.90;;;;;;;9.80;86.71;99203.25;5011632;28;20033;-59
2021/10/18 06:17:35;;;;;;;11.02;5.20;;;;;;;9.55;86.42;99169.84;5017917;28;20026;-59
2021/10/18 06:20:00;;;;;;;9.55;5.15;;;;;;;9.80;86.46;99221.44;5022306;28;20067;-60
2021/10/18 06:22:26;;;;;;;8.50;5.57;;;;;;;9.76;86.71;99227.81;5009723;28;20101;-59
2021/10/18 06:24:51;;;;;;;9.07;5.60;;;;;;;9.78;86.50;99231.13;5009456;28;20349;-59
2021/10/18 06:27:18;;;;;;;9.63;5.30;;;;;;;9.69;86.52;99203.31;5009788;28;20038;-59
2021/10/18 06:29:44;;;;;;;9.77;5.43;;;;;;;9.83;86.48;99212.56;5005316;28;20037;-59
2021/10/18 06:32:09;;;;;;;9.07;5.10;;;;;;;9.86;87.04;99220.09;5010556;28;20030;-59
2021/10/18 06:34:35;;;;;;;9.13;5.18;;;;;;;9.89;86.99;99234.59;5006971;28;20033;-59
2021/10/18 06:37:00;;;;;;;8.13;5.13;;;;;;;9.93;86.44;99236.84;5012361;28;20029;-60
2021/10/18 06:39:26;;;;;;;16.30;6.10;;;;;;;9.94;86.64;99233.28;5016561;28;20033;-59
2021/10/18 06:41:51;;;;;;;14.48;5.53;;;;;;;9.92;86.71;99244.75;5017907;28;20033;-60
2021/10/18 06:44:16;;;;;;;21.33;6.35;;;;;;;10.04;86.29;99232.53;5021484;28;20053;-58
2021/10/18 06:46:42;;;;;;;31.05;6.05;;;;;;;9.60;86.80;99199.69;5015290;28;20076;-60
2021/10/18 06:49:07;;;;;;;11.38;5.70;;;;;;;9.67;87.05;99218.16;5017335;28;20064;-59
2021/10/18 06:51:36;;;;;;;11.40;5.65;;;;;;;9.90;87.35;99252.66;5013729;28;20124;-59
2021/10/18 06:54:03;;;;;;;11.40;5.57;;;;;;;9.64;87.26;99200.25;5016077;28;20060;-59
2021/10/18 06:56:28;;;;;;;11.32;4.95;;;;;;;9.84;87.33;99254.94;5001567;28;20052;-59
2021/10/18 06:58:54;;;;;;;12.27;5.35;;;;;;;9.87;87.03;99260.69;5015477;28;20650;-59
2021/10/18 07:01:19;;;;;;;10.05;5.35;;;;;;;9.89;87.32;99263.19;5028637;28;20037;-59
2021/10/18 07:03:45;;;;;;;12.07;5.47;;;;;;;9.92;86.75;99260.34;5024047;28;20065;-59
2021/10/18 07:06:10;;;;;;;8.35;5.47;;;;;;;9.80;87.40;99264.75;5017058;28;20048;-59
2021/10/18 07:08:35;;;;;;;14.70;7.93;;;;;;;9.84;87.08;99263.56;5018714;28;20057;-59
2021/10/18 07:11:01;;;;;;;9.27;5.80;;;;;;;9.81;87.16;99267.22;5018486;28;20481;-59
2021/10/18 07:13:26;;;;;;;12.45;5.47;;;;;;;9.78;87.21;99258.84;5015575;28;20025;-59
2021/10/18 07:15:52;;;;;;;8.48;5.38;;;;;;;9.76;87.34;99268.53;5002626;28;20033;-59
2021/10/18 07:18:17;;;;;;;9.43;6.13;;;;;;;9.60;87.92;99248.16;5020479;28;20028;-59
2021/10/18 07:20:42;;;;;;;8.43;5.57;;;;;;;9.77;87.73;99270.19;5016760;28;20033;-59
2021/10/18 07:23:10;;;;;;;8.88;5.55;;;;;;;9.86;87.57;99282.44;5018551;28;20424;-59
2021/10/18 07:25:38;;;;;;;9.35;5.63;;;;;;;9.91;87.72;99288.09;5011311;28;20054;-58
2021/10/18 07:28:05;;;;;;;8.70;5.47;;;;;;;9.94;87.36;99287.00;5012233;28;20033;-59
2021/10/18 07:30:31;;;;;;;8.75;5.55;;;;;;;9.84;87.61;99281.75;5014109;28;20080;-59
2021/10/18 07:32:58;;;;;;;8.30;5.90;;;;;;;9.93;87.61;99293.16;5030014;28;20093;-59
2021/10/18 07:35:29;;;;;;;9.48;5.38;;;;;;;9.86;87.65;99281.63;5017677;28;20029;-60
2021/10/18 07:37:56;;;;;;;9.63;5.32;;;;;;;9.89;87.18;99281.34;5024780;28;20594;-59
2021/10/18 07:40:22;;;;;;;15.70;5.90;;;;;;;10.01;87.30;99295.97;5024465;28;20438;-59
2021/10/18 07:42:48;;;;;;;9.00;5.30;;;;;;;10.01;87.42;99303.75;5026471;28;20392;-59
2021/10/18 07:45:13;;;;;;;12.70;7.65;;;;;;;9.83;87.62;99303.47;5022971;28;20037;-59
2021/10/18 07:47:41;;;;;;;10.85;7.50;;;;;;;9.84;87.85;99304.28;5013015;28;20045;-59
2021/10/18 07:50:10;;;;;;;9.15;6.93;;;;;;;9.98;87.59;99319.59;5021130;28;20021;-59
2021/10/18 07:52:36;;;;;;;8.98;5.97;;;;;;;9.86;87.56;99311.00;5016735;28;20345;-59
2021/10/18 07:55:04;;;;;;;9.88;6.10;;;;;;;9.94;87.35;99324.19;5029168;28;20078;-59
2021/10/18 07:57:29;;;;;;;9.80;5.55;;;;;;;9.98;87.50;99330.81;5024351;28;20030;-59
2021/10/18 07:59:55;;;;;;;12.52;6.88;;;;;;;10.00;87.04;99331.53;5017060;28;20037;-59
2021/10/18 08:02:21;;;;;;;11.90;6.28;;;;;;;9.60;86.65;99262.00;5020317;28;20025;-58
2021/10/18 08:04:46;;;;;;;8.25;5.25;;;;;;;10.05;86.83;99331.13;5036006;28;20087;-59
2021/10/18 08:07:11;;;;;;;10.05;6.32;;;;;;;10.13;86.49;99328.75;5018706;28;20036;-59
2021/10/18 08:09:37;;;;;;;9.10;5.72;;;;;;;10.09;87.17;99326.50;5017876;28;20022;-59
2021/10/18 08:12:03;;;;;;;12.00;5.68;;;;;;;10.18;86.51;99329.22;5025907;28;20037;-59
2021/10/18 08:14:28;;;;;;;9.30;5.85;;;;;;;10.21;86.52;99335.94;5028881;28;20161;-59
2021/10/18 08:16:54;;;;;;;10.05;5.22;;;;;;;10.21;86.46;99325.53;5027012;28;20088;-59
2021/10/18 08:19:19;;;;;;;7.82;5.75;;;;;;;9.95;86.99;99296.47;5024105;28;20589;-59
2021/10/18 08:21:44;;;;;;;11.00;5.88;;;;;;;9.93;87.17;99277.56;5026554;28;20067;-59
2021/10/18 08:24:10;;;;;;;8.98;6.47;;;;;;;10.12;86.81;99298.50;5021966;28;20033;-58
2021/10/18 08:26:35;;;;;;;11.18;6.70;;;;;;;10.16;87.03;99306.88;5026438;28;20040;-59
2021/10/18 08:29:01;;;;;;;13.38;6.43;;;;;;;10.24;87.21;99329.63;5021151;28;20025;-59
2021/10/18 08:31:26;;;;;;;10.95;6.30;;;;;;;10.01;87.60;99298.56;5018376;28;20566;-59
2021/10/18 08:33:52;;;;;;;8.75;6.18;;;;;;;10.26;87.48;99335.53;5024127;28;20464;-59
2021/10/18 08:36:17;;;;;;;9.80;6.30;;;;;;;10.18;88.00;99338.75;5022396;28;20484;-59
2021/10/18 08:41:19;;;;;;;9.40;6.32;;;;;;;10.19;86.92;99343.03;5020882;28;20041;-59
2021/10/18 08:46:24;;;;;;;7.93;5.15;;;;;;;10.07;86.12;99341.41;5019406;28;20117;-59
2021/10/18 08:48:52;;;;;;;7.90;4.88;;;;;;;10.18;84.27;99347.41;5026576;28;20037;-59
2021/10/18 08:51:18;;;;;;;10.80;5.38;;;;;;;10.32;84.96;99350.69;5031700;28;20484;-59
2021/10/18 08:53:45;;;;;;;9.82;5.18;;;;;;;10.31;85.45;99344.66;5029968;28;20033;-59
2021/10/18 08:56:10;;;;;;;9.52;5.28;;;;;;;10.30;85.59;99335.19;5032798;28;20082;-59
2021/10/18 08:58:36;;;;;;;8.18;5.10;;;;;;;10.31;84.91;99341.22;4949753;28;20116;-59
2021/10/18 09:01:01;;;;;;;9.10;5.45;;;;;;;10.33;85.68;99321.13;5023823;28;20072;-59
2021/10/18 09:03:29;;;;;;;8.23;5.43;;;;;;;10.42;85.67;99337.75;5020817;28;20392;-60
2021/10/18 09:06:23;;;;;;;9.93;5.38;;;;;;;10.47;85.59;99341.63;5033643;28;20025;-59
2021/10/18 09:08:55;;;;;;;9.52;5.15;;;;;;;10.48;85.70;99345.06;5023351;28;20512;-59
2021/10/18 09:11:22;;;;;;;8.68;5.47;;;;;;;10.41;86.12;99343.91;5025657;28;20111;-59
2021/10/18 09:13:51;;;;;;;17.83;11.20;;;;;;;10.48;86.01;99345.88;5012341;28;20022;-59
2021/10/18 09:16:23;;;;;;;8.40;5.60;;;;;;;10.50;85.51;99348.34;5024663;28;20044;-60
2021/10/18 09:19:10;;;;;;;8.90;5.60;;;;;;;10.30;85.50;99352.56;5022633;28;20484;-59
2021/10/18 09:21:41;;;;;;;7.20;4.35;;;;;;;10.34;83.54;99351.38;5022728;28;20036;-59
2021/10/18 09:24:09;;;;;;;9.45;4.47;;;;;;;10.15;81.78;99311.25;5020380;28;20041;-59
2021/10/18 09:26:36;;;;;;;8.90;5.00;;;;;;;10.49;82.10;99357.09;5026901;28;20026;-59
2021/10/18 09:29:15;;;;;;;8.48;4.38;;;;;;;10.54;80.63;99353.16;4999651;28;20036;-59
2021/10/18 09:31:44;;;;;;;7.85;4.15;;;;;;;10.64;79.34;99350.66;5013698;28;20033;-59
2021/10/18 09:34:16;;;;;;;7.32;4.07;;;;;;;10.80;79.36;99341.56;5039671;28;20037;-59
2021/10/18 09:36:43;;;;;;;7.97;4.28;;;;;;;10.92;78.62;99345.75;4999977;28;20033;-59
2021/10/18 09:39:29;;;;;;;6.53;3.83;;;;;;;11.04;79.28;99339.47;5020010;28;20040;-59
2021/10/18 09:42:05;;;;;;;7.55;4.05;;;;;;;11.11;80.13;99337.19;5022852;28;20040;-59
2021/10/18 09:45:02;;;;;;;7.25;4.43;;;;;;;11.21;80.06;99335.47;5020073;28;20037;-59
2021/10/18 10:52:41;;;;;;;16.42;9.93;;;;;;;13.80;65.71;99291.19;5018769;28;20464;-58
2021/10/18 10:55:33;;;;;;;15.07;10.15;;;;;;;13.99;65.61;99296.25;5007432;28;20521;-58
2021/10/18 10:58:01;;;;;;;13.75;9.75;;;;;;;14.14;65.16;99285.25;5010890;28;20033;-58
2021/10/18 11:00:41;;;;;;;14.02;9.90;;;;;;;14.17;65.54;99279.75;5010318;28;20029;-59
2021/10/18 11:03:31;;;;;;;17.80;10.10;;;;;;;14.17;65.88;99279.75;5014722;28;20025;-59
2021/10/18 11:06:02;;;;;;;14.60;9.65;;;;;;;14.24;65.95;99275.56;5007111;28;20800;-59
2021/10/18 11:08:48;;;;;;;15.02;10.30;;;;;;;14.30;66.18;99274.94;5011049;28;20393;-59
2021/10/18 11:11:21;;;;;;;16.65;11.23;;;;;;;14.12;65.67;99242.75;5007674;28;20065;-58
2021/10/18 11:13:51;;;;;;;16.88;10.35;;;;;;;14.44;65.98;99268.34;5012304;28;20030;-59
2021/10/18 11:16:22;;;;;;;17.73;10.95;;;;;;;14.54;65.71;99268.22;5012332;28;20025;-58
2021/10/18 11:18:50;;;;;;;17.88;10.15;;;;;;;14.60;66.09;99265.00;5017274;28;20108;-59
2021/10/18 11:21:30;;;;;;;15.10;10.65;;;;;;;14.39;65.62;99229.53;5020743;28;20063;-57
2021/10/18 11:24:03;;;;;;;17.17;11.85;;;;;;;14.33;65.74;99218.84;5021612;28;20025;-58
2021/10/18 11:26:35;;;;;;;20.85;11.85;;;;;;;14.65;64.90;99265.38;5018638;28;20106;-59
2021/10/18 11:29:05;;;;;;;16.05;11.98;;;;;;;14.42;65.24;99221.38;5003509;28;20045;-58
2021/10/18 11:31:33;;;;;;;17.67;11.98;;;;;;;14.71;64.83;99254.31;5002200;28;20293;-59
2021/10/18 11:34:02;;;;;;;17.00;12.85;;;;;;;14.83;65.26;99252.22;5002417;28;20041;-58
2021/10/18 11:36:29;;;;;;;17.95;12.60;;;;;;;14.78;64.06;99255.31;5007878;28;20021;-58
2021/10/18 11:39:09;;;;;;;20.13;13.90;;;;;;;14.82;63.71;99241.91;5023292;28;20092;-58
2021/10/18 11:42:00;;;;;;;17.67;12.93;;;;;;;14.65;64.11;99213.03;5009676;28;20040;-59
2021/10/18 11:44:38;;;;;;;19.83;13.07;;;;;;;14.91;63.92;99241.81;5012976;28;20013;-58
2021/10/18 11:47:04;;;;;;;18.52;12.38;;;;;;;14.94;64.15;99241.47;5011153;28;20045;-59
2021/10/18 11:49:30;;;;;;;19.13;12.55;;;;;;;15.01;63.36;99246.09;5015366;28;20025;-58
2021/10/18 11:51:55;;;;;;;18.23;13.32;;;;;;;14.99;63.26;99239.19;5012754;28;20591;-59
2021/10/18 11:54:21;;;;;;;18.38;13.05;;;;;;;14.98;63.45;99245.41;5019282;28;20025;-58
2021/10/18 11:56:46;;;;;;;19.85;14.07;;;;;;;15.03;63.13;99244.94;5021682;28;20550;-58
2021/10/18 11:59:12;;;;;;;19.88;14.27;;;;;;;15.15;62.49;99248.09;5021069;28;20025;-59
2021/10/18 12:01:37;;;;;;;19.52;13.52;;;;;;;15.10;62.65;99235.47;5032604;28;20078;-58
2021/10/18 12:04:06;;;;;;;18.70;13.95;;;;;;;15.18;62.34;99230.25;5012939;28;20399;-58
2021/10/18 12:06:46;;;;;;;18.25;13.55;;;;;;;15.19;62.10;99233.72;5025116;28;20025;-59
2021/10/18 12:09:11;;;;;;;21.08;12.82;;;;;;;15.26;61.33;99228.63;5017429;28;20488;-59
2021/10/18 12:11:37;;;;;;;17.00;13.52;;;;;;;15.32;61.75;99233.25;5022515;28;20033;-58
2021/10/18 12:14:03;;;;;;;18.67;13.45;;;;;;;15.29;62.05;99223.09;5025094;28;20443;-58
2021/10/18 12:16:29;;;;;;;20.42;14.45;;;;;;;15.37;62.45;99238.84;5019777;28;20041;-59
2021/10/18 12:19:00;;;;;;;19.90;14.50;;;;;;;15.31;62.44;99211.44;5021806;28;20055;-59
2021/10/18 12:21:39;;;;;;;21.10;14.32;;;;;;;15.29;61.97;99189.84;4995958;28;20144;-59
2021/10/18 12:24:13;;;;;;;18.45;14.00;;;;;;;15.58;61.61;99222.66;5012452;28;20120;-58
2021/10/18 12:26:40;;;;;;;19.10;14.10;;;;;;;15.55;61.87;99217.72;5037686;28;20032;-58
2021/10/18 12:29:09;;;;;;;17.02;13.27;;;;;;;15.59;61.46;99219.06;5026088;28;20029;-58
2021/10/18 12:31:45;;;;;;;18.52;14.18;;;;;;;15.70;60.81;99210.06;5021352;28;20104;-58
2021/10/18 12:34:22;;;;;;;19.33;14.02;;;;;;;15.70;60.49;99210.06;5020562;28;20060;-59
2021/10/18 12:37:04;;;;;;;19.75;14.48;;;;;;;15.74;61.09;99211.41;5015455;28;20552;-59
2021/10/18 12:39:55;;;;;;;21.05;14.27;;;;;;;15.70;60.36;99215.31;5029913;28;20488;-57
2021/10/18 12:42:21;;;;;;;19.25;14.32;;;;;;;15.54;60.27;99176.78;5024614;28;20523;-59